createdAt,value
2018-09-13T00:00:22.627Z,5.50
2018-09-13T00:01:22.627Z,5.10
2018-09-13T00:02:22.625Z,5.10
2018-09-13T00:03:22.621Z,5.20
2018-09-13T00:04:22.619Z,5.10
2018-09-13T00:05:22.612Z,4.80
2018-09-13T00:06:22.607Z,5.10
2018-09-13T00:07:22.606Z,5.60
2018-09-13T00:08:22.606Z,5.10
2018-09-13T00:09:22.598Z,5.20
2018-09-13T00:10:22.592Z,5.30
2018-09-13T00:11:22.588Z,5.40
2018-09-13T00:12:22.584Z,5.00
2018-09-13T00:13:22.585Z,5.10
2018-09-13T00:14:22.582Z,5.50
2018-09-13T00:15:22.579Z,5.60
2018-09-13T00:16:22.576Z,5.50
2018-09-13T00:17:22.567Z,5.70
2018-09-13T00:18:22.563Z,5.90
2018-09-13T00:19:22.561Z,5.40
2018-09-13T00:20:22.558Z,5.90
2018-09-13T00:21:22.559Z,5.80
2018-09-13T00:22:22.559Z,5.40
2018-09-13T00:23:22.547Z,5.50
2018-09-13T00:24:22.542Z,5.80
2018-09-13T00:25:22.544Z,5.50
2018-09-13T00:26:22.541Z,6.40
2018-09-13T00:27:22.537Z,5.80
2018-09-13T00:28:22.533Z,5.90
2018-09-13T00:29:22.525Z,6.10
2018-09-13T00:30:22.521Z,6.00
2018-09-13T00:31:22.517Z,6.00
2018-09-13T00:32:22.515Z,6.00
2018-09-13T00:33:22.514Z,5.70
2018-09-13T00:34:22.512Z,6.10
2018-09-13T00:35:22.509Z,5.90
2018-09-13T00:36:22.504Z,6.40
2018-09-13T00:37:22.496Z,5.80
2018-09-13T00:38:22.492Z,6.30
2018-09-13T00:39:22.492Z,6.20
2018-09-13T00:40:22.490Z,5.80
2018-09-13T00:41:22.482Z,6.30
2018-09-13T00:42:22.477Z,6.10
2018-09-13T00:43:22.473Z,6.40
2018-09-13T00:44:22.473Z,6.00
2018-09-13T00:45:22.470Z,6.30
2018-09-13T00:46:22.468Z,6.10
2018-09-13T00:47:22.464Z,5.70
2018-09-13T00:48:22.463Z,6.40
2018-09-13T00:49:22.450Z,6.10
2018-09-13T00:50:22.447Z,6.40
2018-09-13T00:51:22.442Z,6.40
2018-09-13T00:52:22.439Z,6.50
2018-09-13T00:53:22.438Z,6.40
2018-09-13T00:54:22.436Z,6.10
2018-09-13T00:55:22.428Z,6.20
2018-09-13T00:56:22.426Z,6.40
2018-09-13T00:57:22.424Z,6.30
2018-09-13T00:58:22.421Z,6.20
2018-09-13T00:59:22.418Z,6.70
2018-09-13T01:00:22.414Z,6.40
2018-09-13T01:01:22.405Z,6.60
2018-09-13T01:02:22.402Z,6.80
2018-09-13T01:03:22.398Z,6.50
2018-09-13T01:04:22.393Z,7.10
2018-09-13T01:05:22.398Z,7.10
2018-09-13T01:06:22.391Z,7.00
2018-09-13T01:07:22.387Z,6.40
2018-09-13T01:08:22.382Z,6.90
2018-09-13T01:09:22.377Z,6.90
2018-09-13T01:10:22.371Z,6.50
2018-09-13T01:11:22.372Z,6.20
2018-09-13T01:12:22.369Z,6.90
2018-09-13T01:13:22.360Z,6.90
2018-09-13T01:14:22.355Z,6.70
2018-09-13T01:15:22.353Z,6.50
2018-09-13T01:16:22.349Z,6.30
2018-09-13T01:17:22.349Z,6.70
2018-09-13T01:18:22.346Z,6.80
2018-09-13T01:19:22.342Z,7.00
2018-09-13T01:20:22.340Z,6.50
2018-09-13T01:21:22.330Z,6.30
2018-09-13T01:22:22.327Z,6.60
2018-09-13T01:23:22.322Z,7.00
2018-09-13T01:24:22.319Z,6.80
2018-09-13T01:25:22.324Z,6.60
2018-09-13T01:26:22.316Z,7.00
2018-09-13T01:27:22.308Z,6.70
2018-09-13T01:28:22.305Z,6.70
2018-09-13T01:29:22.306Z,6.70
2018-09-13T01:30:22.300Z,6.70
2018-09-13T01:31:22.298Z,7.30
2018-09-13T01:32:22.295Z,6.90
2018-09-13T01:33:22.287Z,7.10
2018-09-13T01:34:22.283Z,7.30
2018-09-13T01:35:22.279Z,7.30
2018-09-13T01:36:22.281Z,7.20
2018-09-13T01:37:22.284Z,7.60
2018-09-13T01:38:22.277Z,8.10
2018-09-13T01:39:22.269Z,7.30
2018-09-13T01:40:22.266Z,8.00
2018-09-13T01:41:22.257Z,7.70
2018-09-13T01:42:22.252Z,8.30
2018-09-13T01:43:22.254Z,8.00
2018-09-13T01:44:22.249Z,8.30
2018-09-13T01:45:22.241Z,8.20
2018-09-13T01:46:22.238Z,8.40
2018-09-13T01:47:22.234Z,8.30
2018-09-13T01:48:22.231Z,8.10
2018-09-13T01:49:22.231Z,8.60
2018-09-13T01:50:22.228Z,8.60
2018-09-13T01:51:22.223Z,8.40
2018-09-13T01:52:22.221Z,9.70
2018-09-13T01:53:22.210Z,9.00
2018-09-13T01:54:22.207Z,8.80
2018-09-13T01:55:22.207Z,8.90
2018-09-13T01:56:22.199Z,8.70
2018-09-13T01:57:22.200Z,9.50
2018-09-13T01:58:22.196Z,9.40
2018-09-13T01:59:22.188Z,8.90
2018-09-13T02:00:22.185Z,8.90
2018-09-13T02:01:22.184Z,9.10
2018-09-13T02:02:22.181Z,9.00
2018-09-13T02:03:22.176Z,9.10
2018-09-13T02:04:22.172Z,9.70
2018-09-13T02:05:22.162Z,10.10
2018-09-13T02:06:22.161Z,10.00
2018-09-13T02:07:22.155Z,9.50
2018-09-13T02:08:22.152Z,10.30
2018-09-13T02:09:22.150Z,10.20
2018-09-13T02:10:22.147Z,10.00
2018-09-13T02:11:22.145Z,10.20
2018-09-13T02:12:22.141Z,10.40
2018-09-13T02:13:22.132Z,10.10
2018-09-13T02:14:22.128Z,11.20
2018-09-13T02:15:22.130Z,11.30
2018-09-13T02:16:22.125Z,10.50
2018-09-13T02:17:22.116Z,10.70
2018-09-13T02:18:22.112Z,10.50
2018-09-13T02:19:22.106Z,11.60
2018-09-13T02:20:22.103Z,11.70
2018-09-13T02:21:22.104Z,10.50
2018-09-13T02:22:22.100Z,10.90
2018-09-13T02:23:22.095Z,11.60
2018-09-13T02:24:22.091Z,11.00
2018-09-13T02:25:22.084Z,11.10
2018-09-13T02:26:22.078Z,11.40
2018-09-13T02:27:22.074Z,11.20
2018-09-13T02:28:22.071Z,11.30
2018-09-13T02:29:22.073Z,12.00
2018-09-13T02:30:22.066Z,11.30
2018-09-13T02:31:22.057Z,12.10
2018-09-13T02:32:22.056Z,12.20
2018-09-13T02:33:22.054Z,13.30
2018-09-13T02:34:22.048Z,12.10
2018-09-13T02:35:22.045Z,12.20
2018-09-13T02:36:22.041Z,11.40
2018-09-13T02:37:22.031Z,12.20
2018-09-13T02:38:22.029Z,12.20
2018-09-13T02:39:22.024Z,12.30
2018-09-13T02:40:22.021Z,12.30
2018-09-13T02:41:22.021Z,12.40
2018-09-13T02:42:22.024Z,12.80
2018-09-13T02:43:22.014Z,12.20
2018-09-13T02:44:22.010Z,12.60
2018-09-13T02:45:21.998Z,12.30
2018-09-13T02:46:21.996Z,11.90
2018-09-13T02:47:21.996Z,12.00
2018-09-13T02:48:21.993Z,12.00
2018-09-13T02:49:22.052Z,11.60
2018-09-13T02:50:21.979Z,12.40
2018-09-13T02:51:21.975Z,11.80
2018-09-13T02:52:21.970Z,11.50
2018-09-13T02:53:21.969Z,11.70
2018-09-13T02:54:21.966Z,12.80
2018-09-13T02:55:21.973Z,12.00
2018-09-13T02:56:21.958Z,12.10
2018-09-13T02:57:21.956Z,11.40
2018-09-13T02:58:21.999Z,12.10
2018-09-13T02:59:21.941Z,12.00
2018-09-13T03:00:21.936Z,12.60
2018-09-13T03:01:21.936Z,12.40
2018-09-13T03:02:21.933Z,11.70
2018-09-13T03:03:21.924Z,12.20
2018-09-13T03:04:21.920Z,12.70
2018-09-13T03:05:21.919Z,12.50
2018-09-13T03:06:21.915Z,12.70
2018-09-13T03:07:21.911Z,13.00
2018-09-13T03:08:21.948Z,12.80
2018-09-13T03:09:21.898Z,12.70
2018-09-13T03:10:21.892Z,12.90
2018-09-13T03:11:21.890Z,12.60
2018-09-13T03:12:21.887Z,13.20
2018-09-13T03:13:21.884Z,13.10
2018-09-13T03:14:21.882Z,12.70
2018-09-13T03:15:21.876Z,12.30
2018-09-13T03:16:21.871Z,12.70
2018-09-13T03:17:21.861Z,13.00
2018-09-13T03:18:21.860Z,12.40
2018-09-13T03:19:21.858Z,12.90
2018-09-13T03:20:21.853Z,12.50
2018-09-13T03:21:21.845Z,12.40
2018-09-13T03:22:21.841Z,12.00
2018-09-13T03:23:21.837Z,12.50
2018-09-13T03:24:21.833Z,13.40
2018-09-13T03:25:21.832Z,12.90
2018-09-13T03:26:21.829Z,12.30
2018-09-13T03:27:21.824Z,11.70
2018-09-13T03:28:21.822Z,12.80
2018-09-13T03:29:21.809Z,12.90
2018-09-13T03:30:21.816Z,12.90
2018-09-13T03:31:21.802Z,13.70
2018-09-13T03:32:21.798Z,14.00
2018-09-13T03:33:21.796Z,13.10
2018-09-13T03:34:21.793Z,13.20
2018-09-13T03:35:21.788Z,13.20
2018-09-13T03:36:21.780Z,13.10
2018-09-13T03:37:21.779Z,13.50
2018-09-13T03:38:21.775Z,14.20
2018-09-13T03:39:21.772Z,13.90
2018-09-13T03:40:21.767Z,14.60
2018-09-13T03:41:21.758Z,13.60
2018-09-13T03:42:21.754Z,14.20
2018-09-13T03:43:21.751Z,13.70
2018-09-13T03:44:21.746Z,13.90
2018-09-13T03:45:21.746Z,13.90
2018-09-13T03:46:21.743Z,14.20
2018-09-13T03:47:21.738Z,13.60
2018-09-13T03:48:21.734Z,13.80
2018-09-13T03:49:21.728Z,13.80
2018-09-13T03:50:21.720Z,13.60
2018-09-13T03:51:21.721Z,13.90
2018-09-13T03:52:21.718Z,13.10
2018-09-13T03:53:21.708Z,12.80
2018-09-13T03:54:21.704Z,13.50
2018-09-13T03:55:21.701Z,13.00
2018-09-13T03:56:21.697Z,13.00
2018-09-13T03:57:21.696Z,12.90
2018-09-13T03:58:21.693Z,12.10
2018-09-13T03:59:21.683Z,12.20
2018-09-13T04:00:21.681Z,12.60
2018-09-13T04:01:21.680Z,12.60
2018-09-13T04:02:21.676Z,12.00
2018-09-13T04:03:21.758Z,12.50
2018-09-13T04:04:21.676Z,12.00
2018-09-13T04:05:21.659Z,12.80
2018-09-13T04:06:21.655Z,12.40
2018-09-13T04:07:21.656Z,12.20
2018-09-13T04:08:21.655Z,12.00
2018-09-13T04:09:21.766Z,11.30
2018-09-13T04:10:21.638Z,11.90
2018-09-13T04:11:21.641Z,12.00
2018-09-13T04:12:21.631Z,11.80
2018-09-13T04:13:21.630Z,11.60
2018-09-13T04:14:21.628Z,11.70
2018-09-13T04:15:21.623Z,11.60
2018-09-13T04:16:21.634Z,12.00
2018-09-13T04:17:21.609Z,12.30
2018-09-13T04:18:21.608Z,11.40
2018-09-13T04:19:21.603Z,11.90
2018-09-13T04:20:21.598Z,11.10
2018-09-13T04:21:21.598Z,11.80
2018-09-13T04:22:21.594Z,11.00
2018-09-13T04:23:21.602Z,11.20
2018-09-13T04:24:21.582Z,11.20
2018-09-13T04:25:21.581Z,11.10
2018-09-13T04:26:21.577Z,11.40
2018-09-13T04:27:21.573Z,11.50
2018-09-13T04:28:21.568Z,11.00
2018-09-13T04:29:21.560Z,12.30
2018-09-13T04:30:21.555Z,11.50
2018-09-13T04:31:21.552Z,11.00
2018-09-13T04:32:21.549Z,11.00
2018-09-13T04:33:21.548Z,11.50
2018-09-13T04:34:21.544Z,12.20
2018-09-13T04:35:21.541Z,11.80
2018-09-13T04:36:21.539Z,11.60
2018-09-13T04:37:21.530Z,11.70
2018-09-13T04:38:21.524Z,11.80
2018-09-13T04:39:21.525Z,10.80
2018-09-13T04:40:21.519Z,11.80
2018-09-13T04:41:21.510Z,11.70
2018-09-13T04:42:21.504Z,11.60
2018-09-13T04:43:21.502Z,12.30
2018-09-13T04:44:21.498Z,11.70
2018-09-13T04:45:21.499Z,11.90
2018-09-13T04:46:21.493Z,11.60
2018-09-13T04:47:21.490Z,12.50
2018-09-13T04:48:21.486Z,12.40
2018-09-13T04:49:21.481Z,12.00
2018-09-13T04:50:21.472Z,11.80
2018-09-13T04:51:21.469Z,11.50
2018-09-13T04:52:21.465Z,11.90
2018-09-13T04:53:21.465Z,12.10
2018-09-13T04:54:21.461Z,12.60
2018-09-13T04:55:21.453Z,11.90
2018-09-13T04:56:21.449Z,12.80
2018-09-13T04:57:21.449Z,11.80
2018-09-13T04:58:21.445Z,12.00
2018-09-13T04:59:21.439Z,12.50
2018-09-13T05:00:21.496Z,12.50
2018-09-13T05:01:21.427Z,12.70
2018-09-13T05:02:21.423Z,11.80
2018-09-13T05:03:21.420Z,13.10
2018-09-13T05:04:21.417Z,12.40
2018-09-13T05:05:21.418Z,13.10
2018-09-13T05:06:21.413Z,12.60
2018-09-13T05:07:21.409Z,12.50
2018-09-13T05:08:21.405Z,12.90
2018-09-13T05:09:21.395Z,12.20
2018-09-13T05:10:21.390Z,12.10
2018-09-13T05:11:21.392Z,12.40
2018-09-13T05:12:21.387Z,12.60
2018-09-13T05:13:21.379Z,12.10
2018-09-13T05:14:21.376Z,12.10
2018-09-13T05:15:21.372Z,12.70
2018-09-13T05:16:21.368Z,12.00
2018-09-13T05:17:21.368Z,12.20
2018-09-13T05:18:21.364Z,12.40
2018-09-13T05:19:21.360Z,12.30
2018-09-13T05:20:21.357Z,11.60
2018-09-13T05:21:21.348Z,12.00
2018-09-13T05:22:21.342Z,13.00
2018-09-13T05:23:21.340Z,11.80
2018-09-13T05:24:21.408Z,12.30
2018-09-13T05:25:21.334Z,12.80
2018-09-13T05:26:21.331Z,12.00
2018-09-13T05:27:21.324Z,11.90
2018-09-13T05:28:21.320Z,12.00
2018-09-13T05:29:21.319Z,12.00
2018-09-13T05:30:21.315Z,12.20
2018-09-13T05:31:21.313Z,11.80
2018-09-13T05:32:21.308Z,11.90
2018-09-13T05:33:21.299Z,11.80
2018-09-13T05:34:21.295Z,11.70
2018-09-13T05:35:21.292Z,11.60
2018-09-13T05:36:21.288Z,11.50
2018-09-13T05:37:21.292Z,12.10
2018-09-13T05:38:21.284Z,11.80
2018-09-13T05:39:21.279Z,12.00
2018-09-13T05:40:21.276Z,11.50
2018-09-13T05:41:21.270Z,12.00
2018-09-13T05:42:21.263Z,11.10
2018-09-13T05:43:21.263Z,11.60
2018-09-13T05:44:21.260Z,12.00
2018-09-13T05:45:21.252Z,11.80
2018-09-13T05:46:21.247Z,12.20
2018-09-13T05:47:21.244Z,12.20
2018-09-13T05:48:21.240Z,12.40
2018-09-13T05:49:21.239Z,11.70
2018-09-13T05:50:21.235Z,11.80
2018-09-13T05:51:21.233Z,11.80
2018-09-13T05:52:21.228Z,12.50
2018-09-13T05:53:21.218Z,12.00
2018-09-13T05:54:21.214Z,12.70
2018-09-13T05:55:21.209Z,12.40
2018-09-13T05:56:21.206Z,12.30
2018-09-13T05:57:21.204Z,11.90
2018-09-13T05:58:21.200Z,12.90
2018-09-13T05:59:21.193Z,12.20
2018-09-13T06:00:21.188Z,11.90
2018-09-13T06:01:21.206Z,12.60
2018-09-13T06:02:21.184Z,12.30
2018-09-13T06:03:21.180Z,13.10
2018-09-13T06:04:21.176Z,12.70
2018-09-13T06:05:21.166Z,12.20
2018-09-13T06:06:21.163Z,12.10
2018-09-13T06:07:21.158Z,12.90
2018-09-13T06:08:21.155Z,12.30
2018-09-13T06:09:21.154Z,12.40
2018-09-13T06:10:21.149Z,11.60
2018-09-13T06:11:21.146Z,12.20
2018-09-13T06:12:21.143Z,12.00
2018-09-13T06:13:21.134Z,11.90
2018-09-13T06:14:21.128Z,12.40
2018-09-13T06:15:21.129Z,12.20
2018-09-13T06:16:21.126Z,12.00
2018-09-13T06:17:21.116Z,12.50
2018-09-13T06:18:21.112Z,12.00
2018-09-13T06:19:21.107Z,11.20
2018-09-13T06:20:21.103Z,12.00
2018-09-13T06:21:21.102Z,11.50
2018-09-13T06:22:21.100Z,11.70
2018-09-13T06:23:21.095Z,11.90
2018-09-13T06:24:21.091Z,12.50
2018-09-13T06:25:21.081Z,12.00
2018-09-13T06:26:21.078Z,12.00
2018-09-13T06:27:21.078Z,12.40
2018-09-13T06:28:21.075Z,11.70
2018-09-13T06:29:21.087Z,11.70
2018-09-13T06:30:21.066Z,11.50
2018-09-13T06:31:21.059Z,11.60
2018-09-13T06:32:21.053Z,11.90
2018-09-13T06:33:21.091Z,11.60
2018-09-13T06:34:21.050Z,11.70
2018-09-13T06:35:21.047Z,12.10
2018-09-13T06:36:21.107Z,11.70
2018-09-13T06:37:21.032Z,12.00
2018-09-13T06:38:21.129Z,11.70
2018-09-13T06:39:21.024Z,12.00
2018-09-13T06:40:21.021Z,12.60
2018-09-13T06:41:21.021Z,12.00
2018-09-13T06:42:21.124Z,12.60
2018-09-13T06:43:21.021Z,11.80
2018-09-13T06:44:21.008Z,11.70
2018-09-13T06:45:20.999Z,12.00
2018-09-13T06:46:20.997Z,12.40
2018-09-13T06:47:20.998Z,12.20
2018-09-13T06:48:20.994Z,11.80
2018-09-13T06:49:20.985Z,12.70
2018-09-13T06:50:20.982Z,12.40
2018-09-13T06:51:20.977Z,13.00
2018-09-13T06:52:20.975Z,12.90
2018-09-13T06:53:20.973Z,13.10
2018-09-13T06:54:20.970Z,12.40
2018-09-13T06:55:20.969Z,12.10
2018-09-13T06:56:20.961Z,13.50
2018-09-13T06:57:20.952Z,12.90
2018-09-13T06:58:20.948Z,13.10
2018-09-13T06:59:20.945Z,13.00
2018-09-13T07:00:20.943Z,12.60
2018-09-13T07:01:20.943Z,13.10
2018-09-13T07:02:20.944Z,13.40
2018-09-13T07:03:20.931Z,13.00
2018-09-13T07:04:20.928Z,13.50
2018-09-13T07:05:20.928Z,12.80
2018-09-13T07:06:20.924Z,12.50
2018-09-13T07:07:20.919Z,12.90
2018-09-13T07:08:20.916Z,12.80
2018-09-13T07:09:20.917Z,12.50
2018-09-13T07:10:20.903Z,12.60
2018-09-13T07:11:20.901Z,13.00
2018-09-13T07:12:20.900Z,12.40
2018-09-13T07:13:20.897Z,12.50
2018-09-13T07:14:20.895Z,11.80
2018-09-13T07:15:20.891Z,11.40
2018-09-13T07:16:20.888Z,11.40
2018-09-13T07:17:20.879Z,11.80
2018-09-13T07:18:20.878Z,11.70
2018-09-13T07:19:20.877Z,12.20
2018-09-13T07:20:20.876Z,11.90
2018-09-13T07:21:20.866Z,11.00
2018-09-13T07:22:20.863Z,10.80
2018-09-13T07:23:20.861Z,10.50
2018-09-13T07:24:20.858Z,10.20
2018-09-13T07:25:20.858Z,10.30
2018-09-13T07:26:20.854Z,10.50
2018-09-13T07:27:20.852Z,10.60
2018-09-13T07:28:20.848Z,10.10
2018-09-13T07:29:20.840Z,9.90
2018-09-13T07:30:20.835Z,10.00
2018-09-13T07:31:20.832Z,9.30
2018-09-13T07:32:20.831Z,9.60
2018-09-13T07:33:20.831Z,9.30
2018-09-13T07:34:20.828Z,9.50
2018-09-13T07:35:20.821Z,8.90
2018-09-13T07:36:20.818Z,9.30
2018-09-13T07:37:26.824Z,9.10
2018-09-13T07:38:32.927Z,9.20
2018-09-13T07:39:20.812Z,9.00
2018-09-13T07:40:20.810Z,9.20
2018-09-13T07:41:20.800Z,8.50
2018-09-13T07:42:20.839Z,9.30
2018-09-13T07:43:20.795Z,8.70
2018-09-13T07:44:20.792Z,8.70
2018-09-13T07:45:20.795Z,8.80
2018-09-13T07:46:20.791Z,8.90
2018-09-13T07:47:20.787Z,8.90
2018-09-13T07:48:20.783Z,8.20
2018-09-13T07:49:20.787Z,8.00
2018-09-13T07:50:20.772Z,8.40
2018-09-13T07:51:20.775Z,8.30
2018-09-13T07:52:20.771Z,8.50
2018-09-13T07:53:20.763Z,8.50
2018-09-13T07:54:20.760Z,8.60
2018-09-13T07:55:20.758Z,8.60
2018-09-13T07:56:20.794Z,8.10
2018-09-13T07:57:20.755Z,9.20
2018-09-13T07:58:20.752Z,8.50
2018-09-13T07:59:20.749Z,8.60
2018-09-13T08:00:20.746Z,8.30
2018-09-13T08:01:20.737Z,8.60
2018-09-13T08:02:20.735Z,8.50
2018-09-13T08:03:20.731Z,8.90
2018-09-13T08:04:20.728Z,8.30
2018-09-13T08:05:20.728Z,8.80
2018-09-13T08:06:20.725Z,8.40
2018-09-13T08:07:20.718Z,8.30
2018-09-13T08:08:20.716Z,8.50
2018-09-13T08:09:20.715Z,8.50
2018-09-13T08:10:20.713Z,8.70
2018-09-13T08:11:20.711Z,8.20
2018-09-13T08:12:20.711Z,8.10
2018-09-13T08:13:20.700Z,8.40
2018-09-13T08:14:20.696Z,8.50
2018-09-13T08:15:20.693Z,8.30
2018-09-13T08:16:20.690Z,8.00
2018-09-13T08:17:20.691Z,8.20
2018-09-13T08:18:20.689Z,8.30
2018-09-13T08:19:20.685Z,8.20
2018-09-13T08:20:20.684Z,8.70
2018-09-13T08:21:20.797Z,7.80
2018-09-13T08:22:20.672Z,8.00
2018-09-13T08:23:20.673Z,8.40
2018-09-13T08:24:20.670Z,8.90
2018-09-13T08:25:20.663Z,8.00
2018-09-13T08:26:20.660Z,8.30
2018-09-13T08:27:20.705Z,8.50
2018-09-13T08:28:20.655Z,8.70
2018-09-13T08:29:20.656Z,9.10
2018-09-13T08:30:20.653Z,8.90
2018-09-13T08:31:20.650Z,9.50
2018-09-13T08:32:20.648Z,9.00
2018-09-13T08:33:20.747Z,9.60
2018-09-13T08:34:20.637Z,9.40
2018-09-13T08:35:20.635Z,9.50
2018-09-13T08:36:20.635Z,9.50
2018-09-13T08:37:20.632Z,9.40
2018-09-13T08:38:20.630Z,9.70
2018-09-13T08:39:20.623Z,9.80
2018-09-13T08:40:20.639Z,9.50
2018-09-13T08:41:20.622Z,9.20
2018-09-13T08:42:20.619Z,10.10
2018-09-13T08:43:20.619Z,9.30
2018-09-13T08:44:20.615Z,9.90
2018-09-13T08:45:20.606Z,10.40
2018-09-13T08:46:20.604Z,10.70
2018-09-13T08:47:20.603Z,10.00
2018-09-13T08:48:20.599Z,10.40
2018-09-13T08:49:20.599Z,10.50
2018-09-13T08:50:20.597Z,10.50
2018-09-13T08:51:20.596Z,10.10
2018-09-13T08:52:20.592Z,11.10
2018-09-13T08:53:20.583Z,10.90
2018-09-13T08:54:20.581Z,10.50
2018-09-13T08:55:20.583Z,11.60
2018-09-13T08:56:20.579Z,10.70
2018-09-13T08:57:20.572Z,10.40
2018-09-13T08:58:20.569Z,11.50
2018-09-13T08:59:20.567Z,10.90
2018-09-13T09:00:20.565Z,10.70
2018-09-13T09:01:20.567Z,11.00
2018-09-13T09:02:20.564Z,10.70
2018-09-13T09:03:20.565Z,11.10
2018-09-13T09:04:20.559Z,10.80
2018-09-13T09:05:20.551Z,10.50
2018-09-13T09:06:20.580Z,10.70
2018-09-13T09:07:20.546Z,10.50
2018-09-13T09:08:20.547Z,10.30
2018-09-13T09:09:20.545Z,11.10
2018-09-13T09:10:20.542Z,10.10
2018-09-13T09:11:20.536Z,10.20
2018-09-13T09:12:20.532Z,10.20
2018-09-13T09:13:20.537Z,11.00
2018-09-13T09:14:20.533Z,10.30
2018-09-13T09:15:20.531Z,11.00
2018-09-13T09:16:20.528Z,9.20
2018-09-13T09:17:20.521Z,9.50
2018-09-13T09:18:20.519Z,9.50
2018-09-13T09:19:20.515Z,9.70
2018-09-13T09:20:20.514Z,9.50
2018-09-13T09:21:20.515Z,9.40
2018-09-13T09:22:20.513Z,9.60
2018-09-13T09:23:20.511Z,9.30
2018-09-13T09:24:20.509Z,9.30
2018-09-13T09:25:20.505Z,9.10
2018-09-13T09:26:20.499Z,8.40
2018-09-13T09:27:20.503Z,8.80
2018-09-13T09:28:20.499Z,8.40
2018-09-13T09:29:20.555Z,7.80
2018-09-13T09:30:20.490Z,7.70
2018-09-13T09:31:20.487Z,8.40
2018-09-13T09:32:20.485Z,7.20
2018-09-13T09:33:20.486Z,7.70
2018-09-13T09:34:20.485Z,6.80
2018-09-13T09:35:20.483Z,7.80
2018-09-13T09:36:20.482Z,7.00
2018-09-13T09:37:20.472Z,7.50
2018-09-13T09:38:20.471Z,7.10
2018-09-13T09:39:20.469Z,7.00
2018-09-13T09:40:20.469Z,6.70
2018-09-13T09:41:20.469Z,6.70
2018-09-13T09:42:20.467Z,7.00
2018-09-13T09:43:20.507Z,6.50
2018-09-13T09:44:20.584Z,6.60
2018-09-13T09:45:20.461Z,6.40
2018-09-13T09:46:20.458Z,6.50
2018-09-13T09:47:20.456Z,6.30
2018-09-13T09:48:20.454Z,6.30
2018-09-13T09:49:20.447Z,6.10
2018-09-13T09:50:20.455Z,5.80
2018-09-13T09:51:20.443Z,6.30
2018-09-13T09:52:20.478Z,6.20
2018-09-13T09:53:20.445Z,6.00
2018-09-13T09:54:20.446Z,6.10
2018-09-13T09:55:20.442Z,6.10
2018-09-13T09:56:20.439Z,6.10
2018-09-13T09:57:20.432Z,6.30
2018-09-13T09:58:20.433Z,7.10
2018-09-13T09:59:20.434Z,6.80
2018-09-13T10:00:20.432Z,7.00
2018-09-13T10:01:20.426Z,6.20
2018-09-13T10:02:20.425Z,6.50
2018-09-13T10:03:20.423Z,6.50
2018-09-13T10:04:20.487Z,7.20
2018-09-13T10:05:20.423Z,6.90
2018-09-13T10:06:20.422Z,6.50
2018-09-13T10:07:20.420Z,6.20
2018-09-13T10:08:20.419Z,5.90
2018-09-13T10:09:20.412Z,6.00
2018-09-13T10:10:20.410Z,6.00
2018-09-13T10:11:20.409Z,5.70
2018-09-13T10:12:20.408Z,5.30
2018-09-13T10:13:20.410Z,5.30
2018-09-13T10:14:20.410Z,4.90
2018-09-13T10:15:20.402Z,5.40
2018-09-13T10:16:20.446Z,5.20
2018-09-13T10:17:20.404Z,5.30
2018-09-13T10:18:20.402Z,5.00
2018-09-13T10:19:20.399Z,5.00
2018-09-13T10:20:20.399Z,5.10
2018-09-13T10:21:20.395Z,4.70
2018-09-13T10:22:20.390Z,4.90
2018-09-13T10:23:20.390Z,4.30
2018-09-13T10:24:20.388Z,4.20
2018-09-13T10:25:20.392Z,4.20
2018-09-13T10:26:20.391Z,4.50
2018-09-13T10:27:20.397Z,4.10
2018-09-13T10:28:20.388Z,4.10
2018-09-13T10:29:20.463Z,4.00
2018-09-13T10:30:20.381Z,4.30
2018-09-13T10:31:20.384Z,4.20
2018-09-13T10:32:20.385Z,3.90
2018-09-13T10:33:20.379Z,4.00
2018-09-13T10:34:20.378Z,4.10
2018-09-13T10:35:20.378Z,4.10
2018-09-13T10:36:20.376Z,3.90
2018-09-13T10:37:20.380Z,3.70
2018-09-13T10:38:20.380Z,3.90
2018-09-13T10:39:20.378Z,3.40
2018-09-13T10:40:20.378Z,3.30
2018-09-13T10:41:20.374Z,3.80
2018-09-13T10:42:20.370Z,3.90
2018-09-13T10:43:20.371Z,4.00
2018-09-13T10:44:20.370Z,4.60
2018-09-13T10:45:20.372Z,4.50
2018-09-13T10:46:20.372Z,5.00
2018-09-13T10:47:20.375Z,5.20
2018-09-13T10:48:20.367Z,4.90
2018-09-13T10:49:20.370Z,4.60
2018-09-13T10:50:20.491Z,5.30
2018-09-13T10:51:20.376Z,5.70
2018-09-13T10:52:20.487Z,5.60
2018-09-13T10:53:20.366Z,5.70
2018-09-13T10:54:20.369Z,5.40
2018-09-13T10:55:20.455Z,5.90
2018-09-13T10:56:20.367Z,7.40
2018-09-13T10:57:20.371Z,5.80
2018-09-13T10:58:20.371Z,6.00
2018-09-13T10:59:20.371Z,5.40
2018-09-13T11:00:20.370Z,5.40
2018-09-13T11:01:20.364Z,6.30
2018-09-13T11:02:20.364Z,6.20
2018-09-13T11:03:20.369Z,7.60
2018-09-13T11:04:20.397Z,9.10
2018-09-13T11:05:20.365Z,9.00
2018-09-13T11:06:20.364Z,10.00
2018-09-13T11:07:20.364Z,11.20
2018-09-13T11:08:20.364Z,11.30
2018-09-13T11:09:20.368Z,11.50
2018-09-13T11:10:20.429Z,11.90
2018-09-13T11:11:20.398Z,11.00
2018-09-13T11:12:20.368Z,11.10
2018-09-13T11:13:20.361Z,12.20
2018-09-13T11:14:20.361Z,11.80
2018-09-13T11:15:20.360Z,11.10
2018-09-13T11:16:20.359Z,11.60
2018-09-13T11:17:20.362Z,11.60
2018-09-13T11:18:20.361Z,11.60
2018-09-13T11:19:20.357Z,10.90
2018-09-13T11:20:20.357Z,11.00
2018-09-13T11:21:20.360Z,10.90
2018-09-13T11:22:20.361Z,11.20
2018-09-13T11:23:20.360Z,10.70
2018-09-13T11:24:20.360Z,10.40
2018-09-13T11:25:20.354Z,10.60
2018-09-13T11:26:20.353Z,10.90
2018-09-13T11:27:20.352Z,10.70
2018-09-13T11:28:20.353Z,10.40
2018-09-13T11:29:20.356Z,10.20
2018-09-13T11:30:20.357Z,9.80
2018-09-13T11:31:20.357Z,10.10
2018-09-13T11:32:20.355Z,10.60
2018-09-13T11:33:20.351Z,11.80
2018-09-13T11:34:20.351Z,11.70
2018-09-13T11:35:20.356Z,13.10
2018-09-13T11:36:20.355Z,12.60
2018-09-13T11:37:20.349Z,13.90
2018-09-13T11:38:20.357Z,14.30
2018-09-13T11:39:20.348Z,13.90
2018-09-13T11:40:20.439Z,14.40
2018-09-13T11:41:20.352Z,14.20
2018-09-13T11:42:20.351Z,13.90
2018-09-13T11:43:20.351Z,15.70
2018-09-13T11:44:20.351Z,15.70
2018-09-13T11:45:20.347Z,15.40
2018-09-13T11:46:20.347Z,14.00
2018-09-13T11:47:20.348Z,14.80
2018-09-13T11:48:20.348Z,13.90
2018-09-13T11:49:20.353Z,14.30
2018-09-13T11:50:20.353Z,14.80
2018-09-13T11:51:20.348Z,13.80
2018-09-13T11:52:20.349Z,14.40
2018-09-13T11:53:20.354Z,15.40
2018-09-13T11:54:20.355Z,14.20
2018-09-13T11:55:20.354Z,14.90
2018-09-13T11:56:20.356Z,14.50
2018-09-13T11:57:20.350Z,14.30
2018-09-13T11:58:20.352Z,14.00
2018-09-13T11:59:20.355Z,13.30
2018-09-13T12:00:20.354Z,14.00
2018-09-13T12:01:20.378Z,14.00
2018-09-13T12:02:20.359Z,15.20
2018-09-13T12:03:20.361Z,14.90
2018-09-13T12:04:20.362Z,15.40
2018-09-13T12:05:20.358Z,15.20
2018-09-13T12:06:20.359Z,15.40
2018-09-13T12:07:20.365Z,16.90
2018-09-13T12:08:20.368Z,15.80
2018-09-13T12:09:20.397Z,16.10
2018-09-13T12:10:20.367Z,16.40
2018-09-13T12:11:20.364Z,17.60
2018-09-13T12:12:20.368Z,17.20
2018-09-13T12:13:20.372Z,15.70
2018-09-13T12:14:20.373Z,15.90
2018-09-13T12:15:20.375Z,15.90
2018-09-13T12:16:20.377Z,16.40
2018-09-13T12:17:20.375Z,16.50
2018-09-13T12:18:20.436Z,15.40
2018-09-13T12:19:20.452Z,14.50
2018-09-13T12:20:20.382Z,14.20
2018-09-13T12:21:20.386Z,14.50
2018-09-13T12:22:20.391Z,13.10
2018-09-13T12:23:20.385Z,13.40
2018-09-13T12:24:20.388Z,12.60
2018-09-13T12:25:20.394Z,12.40
2018-09-13T12:26:20.399Z,12.20
2018-09-13T12:27:20.438Z,12.20
2018-09-13T12:28:20.398Z,12.30
2018-09-13T12:29:20.393Z,11.70
2018-09-13T12:30:20.396Z,11.00
2018-09-13T12:31:20.398Z,11.40
2018-09-13T12:32:20.402Z,13.10
2018-09-13T12:33:20.403Z,13.00
2018-09-13T12:34:20.407Z,13.20
2018-09-13T12:35:20.407Z,12.10
2018-09-13T12:36:20.408Z,12.20
2018-09-13T12:37:20.406Z,12.20
2018-09-13T12:38:20.405Z,12.50
2018-09-13T12:39:20.412Z,13.10
2018-09-13T12:40:20.414Z,11.90
2018-09-13T12:41:20.409Z,11.70
2018-09-13T12:42:20.410Z,12.30
2018-09-13T12:43:20.451Z,11.90
2018-09-13T12:44:20.412Z,11.90
2018-09-13T12:45:20.417Z,12.00
2018-09-13T12:46:20.419Z,12.30
2018-09-13T12:47:20.419Z,11.90
2018-09-13T12:48:20.420Z,11.50
2018-09-13T12:49:20.416Z,12.90
2018-09-13T12:50:20.417Z,11.50
2018-09-13T12:51:20.417Z,11.30
2018-09-13T12:52:20.492Z,11.50
2018-09-13T12:53:20.423Z,11.50
2018-09-13T12:54:20.423Z,10.60
2018-09-13T12:55:20.420Z,10.80
2018-09-13T12:56:20.456Z,10.60
2018-09-13T12:57:20.424Z,11.00
2018-09-13T12:58:20.427Z,10.60
2018-09-13T12:59:20.425Z,10.40
2018-09-13T13:00:20.427Z,10.10
2018-09-13T13:01:20.422Z,9.80
2018-09-13T13:02:20.422Z,9.90